sensor_id;sensor_type;location;lat;lon;timestamp;pressure;altitude;pressure_sealevel;temperature;humidity
50636;BME280;36598;46.054;11.130;2022-11-15T00:00:07;99668.34;;;9.15;81.19
50636;BME280;36598;46.054;11.130;2022-11-15T00:02:32;99668.34;;;9.08;81.54
50636;BME280;36598;46.054;11.130;2022-11-15T00:04:58;99667.56;;;9.00;81.26
50636;BME280;36598;46.054;11.130;2022-11-15T00:07:23;99667.16;;;8.98;81.28
50636;BME280;36598;46.054;11.130;2022-11-15T00:09:49;99665.19;;;9.02;81.00
50636;BME280;36598;46.054;11.130;2022-11-15T00:12:14;99660.44;;;8.85;81.66
50636;BME280;36598;46.054;11.130;2022-11-15T00:14:39;99660.38;;;8.49;84.02
50636;BME280;36598;46.054;11.130;2022-11-15T00:17:05;99654.09;;;8.73;83.01
50636;BME280;36598;46.054;11.130;2022-11-15T00:19:30;99656.13;;;8.98;81.81
50636;BME280;36598;46.054;11.130;2022-11-15T00:21:56;99654.81;;;8.42;84.52
50636;BME280;36598;46.054;11.130;2022-11-15T00:24:21;99655.22;;;8.51;83.80
50636;BME280;36598;46.054;11.130;2022-11-15T00:26:47;99660.38;;;8.49;84.18
50636;BME280;36598;46.054;11.130;2022-11-15T00:29:12;99654.06;;;8.59;83.92
50636;BME280;36598;46.054;11.130;2022-11-15T00:31:37;99655.22;;;8.44;84.63
50636;BME280;36598;46.054;11.130;2022-11-15T00:34:03;99655.28;;;8.65;84.43
50636;BME280;36598;46.054;11.130;2022-11-15T00:36:28;99658.03;;;8.72;83.59
50636;BME280;36598;46.054;11.130;2022-11-15T00:38:54;99660.38;;;8.52;84.46
50636;BME280;36598;46.054;11.130;2022-11-15T00:41:19;99656.09;;;8.84;82.90
50636;BME280;36598;46.054;11.130;2022-11-15T00:43:44;99661.63;;;8.94;82.98
50636;BME280;36598;46.054;11.130;2022-11-15T00:46:10;99651.78;;;8.83;82.59
50636;BME280;36598;46.054;11.130;2022-11-15T00:48:36;99644.63;;;8.67;83.18
50636;BME280;36598;46.054;11.130;2022-11-15T00:51:01;99650.94;;;8.64;83.50
50636;BME280;36598;46.054;11.130;2022-11-15T00:53:27;99645.47;;;8.93;82.71
50636;BME280;36598;46.054;11.130;2022-11-15T00:55:52;99644.66;;;8.82;83.62
50636;BME280;36598;46.054;11.130;2022-11-15T00:58:18;99642.72;;;8.89;82.93
50636;BME280;36598;46.054;11.130;2022-11-15T01:00:43;99635.22;;;9.00;81.33
50636;BME280;36598;46.054;11.130;2022-11-15T01:03:09;99640.72;;;8.90;82.02
50636;BME280;36598;46.054;11.130;2022-11-15T01:05:36;99645.44;;;8.75;82.91
50636;BME280;36598;46.054;11.130;2022-11-15T01:08:02;99646.22;;;8.68;83.50
50636;BME280;36598;46.054;11.130;2022-11-15T01:10:27;99643.88;;;8.77;82.47
50636;BME280;36598;46.054;11.130;2022-11-15T01:12:53;99642.31;;;8.80;82.55
50636;BME280;36598;46.054;11.130;2022-11-15T01:15:18;99637.56;;;8.77;82.18
50636;BME280;36598;46.054;11.130;2022-11-15T01:17:43;99643.91;;;8.92;81.83
50636;BME280;36598;46.054;11.130;2022-11-15T01:20:09;99630.47;;;8.65;82.68
50636;BME280;36598;46.054;11.130;2022-11-15T01:22:34;99635.59;;;8.81;82.10
50636;BME280;36598;46.054;11.130;2022-11-15T01:25:00;99631.25;;;8.80;82.49
50636;BME280;36598;46.054;11.130;2022-11-15T01:27:25;99630.50;;;9.08;81.35
50636;BME280;36598;46.054;11.130;2022-11-15T01:29:51;99631.25;;;8.76;83.30
50636;BME280;36598;46.054;11.130;2022-11-15T01:32:16;99637.59;;;8.98;81.43
50636;BME280;36598;46.054;11.130;2022-11-15T01:34:41;99628.91;;;9.03;81.12
50636;BME280;36598;46.054;11.130;2022-11-15T01:37:07;99621.44;;;9.11;81.49
50636;BME280;36598;46.054;11.130;2022-11-15T01:39:32;99628.13;;;8.92;81.40
50636;BME280;36598;46.054;11.130;2022-11-15T01:41:57;99636.00;;;8.80;82.11
50636;BME280;36598;46.054;11.130;2022-11-15T01:47:17;99637.19;;;8.78;82.42
50636;BME280;36598;46.054;11.130;2022-11-15T01:50:04;99629.28;;;8.66;82.23
50636;BME280;36598;46.054;11.130;2022-11-15T01:52:30;99626.16;;;8.93;80.65
50636;BME280;36598;46.054;11.130;2022-11-15T01:54:59;99624.59;;;8.92;81.67
50636;BME280;36598;46.054;11.130;2022-11-15T01:57:26;99619.00;;;8.60;81.69
50636;BME280;36598;46.054;11.130;2022-11-15T01:59:51;99615.44;;;8.56;82.28
50636;BME280;36598;46.054;11.130;2022-11-15T02:02:17;99609.94;;;8.59;81.96
50636;BME280;36598;46.054;11.130;2022-11-15T02:04:43;99611.94;;;8.76;80.90
50636;BME280;36598;46.054;11.130;2022-11-15T02:07:10;99605.09;;;8.20;83.71
50636;BME280;36598;46.054;11.130;2022-11-15T02:09:37;99599.69;;;8.49;82.66
50636;BME280;36598;46.054;11.130;2022-11-15T02:12:02;99606.00;;;8.53;81.73
50636;BME280;36598;46.054;11.130;2022-11-15T02:14:28;99598.91;;;8.56;82.59
50636;BME280;36598;46.054;11.130;2022-11-15T02:19:36;99590.25;;;8.53;81.86
50636;BME280;36598;46.054;11.130;2022-11-15T02:22:12;99583.09;;;8.38;82.42
50636;BME280;36598;46.054;11.130;2022-11-15T02:32:51;99570.53;;;8.41;81.18
50636;BME280;36598;46.054;11.130;2022-11-15T02:38:06;99572.75;;;8.07;82.94
50636;BME280;36598;46.054;11.130;2022-11-15T02:40:36;99561.38;;;8.15;83.45
50636;BME280;36598;46.054;11.130;2022-11-15T02:43:07;99562.50;;;8.00;83.94
50636;BME280;36598;46.054;11.130;2022-11-15T02:45:53;99555.81;;;7.97;84.31
50636;BME280;36598;46.054;11.130;2022-11-15T02:48:21;99553.53;;;8.28;82.43
50636;BME280;36598;46.054;11.130;2022-11-15T02:50:47;99549.13;;;8.13;83.53
50636;BME280;36598;46.054;11.130;2022-11-15T02:53:14;99543.56;;;7.84;83.33
50636;BME280;36598;46.054;11.130;2022-11-15T02:55:46;99551.88;;;8.02;82.91
50636;BME280;36598;46.054;11.130;2022-11-15T03:00:47;99547.19;;;8.10;82.60
50636;BME280;36598;46.054;11.130;2022-11-15T03:10:46;99554.25;;;8.07;82.53
50636;BME280;36598;46.054;11.130;2022-11-15T03:13:21;99549.84;;;7.92;83.58
50636;BME280;36598;46.054;11.130;2022-11-15T03:18:21;99544.31;;;7.81;83.45
50636;BME280;36598;46.054;11.130;2022-11-15T03:20:48;99535.19;;;7.66;85.02
50636;BME280;36598;46.054;11.130;2022-11-15T03:23:14;99537.25;;;7.84;84.27
50636;BME280;36598;46.054;11.130;2022-11-15T03:25:46;99528.59;;;7.82;83.82
50636;BME280;36598;46.054;11.130;2022-11-15T03:28:16;99529.44;;;8.03;83.21
50636;BME280;36598;46.054;11.130;2022-11-15T03:30:42;99519.63;;;8.06;82.84
50636;BME280;36598;46.054;11.130;2022-11-15T03:33:09;99523.50;;;7.91;82.89
50636;BME280;36598;46.054;11.130;2022-11-15T03:35:37;99520.72;;;7.80;82.99
50636;BME280;36598;46.054;11.130;2022-11-15T03:40:30;99517.56;;;7.82;81.75
50636;BME280;36598;46.054;11.130;2022-11-15T03:45:27;99521.50;;;7.81;82.20
50636;BME280;36598;46.054;11.130;2022-11-15T03:48:05;99520.69;;;7.76;82.34
50636;BME280;36598;46.054;11.130;2022-11-15T03:50:34;99526.16;;;7.69;82.60
50636;BME280;36598;46.054;11.130;2022-11-15T03:53:00;99532.13;;;7.82;81.13
50636;BME280;36598;46.054;11.130;2022-11-15T03:55:25;99539.97;;;7.73;80.61
50636;BME280;36598;46.054;11.130;2022-11-15T03:57:53;99537.13;;;7.55;80.43
50636;BME280;36598;46.054;11.130;2022-11-15T04:00:19;99541.00;;;7.43;81.26
50636;BME280;36598;46.054;11.130;2022-11-15T04:02:44;99536.88;;;7.12;82.39
50636;BME280;36598;46.054;11.130;2022-11-15T04:05:09;99531.00;;;7.17;82.45
50636;BME280;36598;46.054;11.130;2022-11-15T04:07:35;99536.88;;;7.12;83.22
50636;BME280;36598;46.054;11.130;2022-11-15T04:10:00;99541.69;;;7.26;83.17
50636;BME280;36598;46.054;11.130;2022-11-15T04:12:29;99547.28;;;7.44;81.61
50636;BME280;36598;46.054;11.130;2022-11-15T04:15:01;99549.31;;;7.50;80.70
50636;BME280;36598;46.054;11.130;2022-11-15T04:20:17;99546.56;;;7.54;80.42
50636;BME280;36598;46.054;11.130;2022-11-15T04:23:02;99546.34;;;7.18;82.01
50636;BME280;36598;46.054;11.130;2022-11-15T04:25:47;99550.25;;;7.14;82.26
50636;BME280;36598;46.054;11.130;2022-11-15T04:28:15;99548.72;;;7.23;81.40
50636;BME280;36598;46.054;11.130;2022-11-15T04:30:40;99548.72;;;7.20;82.26
50636;BME280;36598;46.054;11.130;2022-11-15T04:33:05;99554.72;;;7.40;81.25
50636;BME280;36598;46.054;11.130;2022-11-15T04:35:30;99544.91;;;7.39;81.78
50636;BME280;36598;46.054;11.130;2022-11-15T04:37:57;99549.53;;;7.20;82.68
50636;BME280;36598;46.054;11.130;2022-11-15T04:40:22;99542.41;;;7.16;83.24
50636;BME280;36598;46.054;11.130;2022-11-15T04:42:47;99531.66;;;6.96;84.59
50636;BME280;36598;46.054;11.130;2022-11-15T04:45:13;99543.78;;;7.50;82.30
50636;BME280;36598;46.054;11.130;2022-11-15T04:47:38;99539.81;;;7.44;82.51
50636;BME280;36598;46.054;11.130;2022-11-15T04:50:03;99524.00;;;7.31;83.12
50636;BME280;36598;46.054;11.130;2022-11-15T04:52:28;99527.19;;;7.36;82.75
50636;BME280;36598;46.054;11.130;2022-11-15T04:54:54;99535.09;;;7.41;82.58
50636;BME280;36598;46.054;11.130;2022-11-15T04:57:19;99540.66;;;7.52;81.73
50636;BME280;36598;46.054;11.130;2022-11-15T04:59:44;99542.16;;;7.39;82.01
50636;BME280;36598;46.054;11.130;2022-11-15T05:02:09;99537.03;;;7.37;82.67
50636;BME280;36598;46.054;11.130;2022-11-15T05:04:35;99544.41;;;7.22;82.16
50636;BME280;36598;46.054;11.130;2022-11-15T05:07:00;99542.97;;;7.43;81.50
50636;BME280;36598;46.054;11.130;2022-11-15T05:09:25;99533.84;;;7.32;81.10
50636;BME280;36598;46.054;11.130;2022-11-15T05:11:50;99537.28;;;7.14;80.46
50636;BME280;36598;46.054;11.130;2022-11-15T05:14:16;99533.41;;;6.71;82.00
50636;BME280;36598;46.054;11.130;2022-11-15T05:16:41;99527.31;;;6.44;84.27
50636;BME280;36598;46.054;11.130;2022-11-15T05:19:07;99525.06;;;6.57;84.67
50636;BME280;36598;46.054;11.130;2022-11-15T05:21:32;99525.50;;;6.62;84.33
50636;BME280;36598;46.054;11.130;2022-11-15T05:23:58;99518.84;;;6.67;83.97
50636;BME280;36598;46.054;11.130;2022-11-15T05:26:23;99516.56;;;6.72;84.43
50636;BME280;36598;46.054;11.130;2022-11-15T05:28:52;99520.22;;;6.91;82.77
50636;BME280;36598;46.054;11.130;2022-11-15T05:31:18;99518.16;;;6.77;83.56
50636;BME280;36598;46.054;11.130;2022-11-15T05:33:43;99518.31;;;6.98;82.50
50636;BME280;36598;46.054;11.130;2022-11-15T05:38:49;99516.19;;;6.77;82.18
50636;BME280;36598;46.054;11.130;2022-11-15T05:41:15;99515.72;;;6.65;83.05
50636;BME280;36598;46.054;11.130;2022-11-15T05:43:41;99511.78;;;6.66;83.38
50636;BME280;36598;46.054;11.130;2022-11-15T05:46:07;99509.16;;;6.84;82.78
50636;BME280;36598;46.054;11.130;2022-11-15T05:48:34;99507.31;;;7.02;82.02
50636;BME280;36598;46.054;11.130;2022-11-15T05:50:59;99498.59;;;6.89;82.63
50636;BME280;36598;46.054;11.130;2022-11-15T05:53:26;99496.34;;;7.06;81.70
50636;BME280;36598;46.054;11.130;2022-11-15T05:55:52;99490.88;;;7.09;81.42
50636;BME280;36598;46.054;11.130;2022-11-15T05:58:17;99488.75;;;6.88;82.29
50636;BME280;36598;46.054;11.130;2022-11-15T06:00:43;99495.19;;;7.10;81.15
50636;BME280;36598;46.054;11.130;2022-11-15T06:03:08;99494.47;;;7.20;80.62
50636;BME280;36598;46.054;11.130;2022-11-15T06:05:33;99500.34;;;7.15;80.10
50636;BME280;36598;46.054;11.130;2022-11-15T06:07:59;99500.25;;;7.01;80.66
50636;BME280;36598;46.054;11.130;2022-11-15T06:10:24;99513.97;;;6.94;81.18
50636;BME280;36598;46.054;11.130;2022-11-15T06:12:56;99513.00;;;6.72;82.61
50636;BME280;36598;46.054;11.130;2022-11-15T06:15:22;99511.06;;;6.72;82.06
50636;BME280;36598;46.054;11.130;2022-11-15T06:17:47;99512.81;;;6.47;82.23
50636;BME280;36598;46.054;11.130;2022-11-15T06:20:12;99512.50;;;6.56;82.61
50636;BME280;36598;46.054;11.130;2022-11-15T06:22:37;99517.25;;;6.62;82.27
50636;BME280;36598;46.054;11.130;2022-11-15T06:25:03;99505.31;;;6.95;81.34
50636;BME280;36598;46.054;11.130;2022-11-15T06:27:28;99510.50;;;7.04;80.97
50636;BME280;36598;46.054;11.130;2022-11-15T06:29:53;99523.59;;;7.25;80.20
50636;BME280;36598;46.054;11.130;2022-11-15T06:32:18;99517.69;;;7.26;80.01
50636;BME280;36598;46.054;11.130;2022-11-15T06:34:44;99526.75;;;7.27;79.41
50636;BME280;36598;46.054;11.130;2022-11-15T06:37:09;99538.09;;;7.18;79.53
50636;BME280;36598;46.054;11.130;2022-11-15T06:39:34;99537.72;;;7.23;80.15
50636;BME280;36598;46.054;11.130;2022-11-15T06:42:00;99551.22;;;7.43;79.27
50636;BME280;36598;46.054;11.130;2022-11-15T06:44:25;99540.28;;;7.57;78.49
50636;BME280;36598;46.054;11.130;2022-11-15T06:46:50;99547.78;;;7.60;77.97
50636;BME280;36598;46.054;11.130;2022-11-15T06:49:16;99550.47;;;7.49;78.13
50636;BME280;36598;46.054;11.130;2022-11-15T06:51:41;99551.19;;;7.39;78.78
50636;BME280;36598;46.054;11.130;2022-11-15T06:54:07;99546.47;;;7.40;77.56
50636;BME280;36598;46.054;11.130;2022-11-15T06:56:33;99547.44;;;7.72;75.58
50636;BME280;36598;46.054;11.130;2022-11-15T06:58:58;99541.97;;;7.87;75.56
50636;BME280;36598;46.054;11.130;2022-11-15T07:01:23;99546.59;;;7.61;75.92
50636;BME280;36598;46.054;11.130;2022-11-15T07:03:49;99551.97;;;7.40;76.44
50636;BME280;36598;46.054;11.130;2022-11-15T07:06:14;99550.63;;;7.82;74.88
50636;BME280;36598;46.054;11.130;2022-11-15T07:08:39;99552.16;;;7.72;74.83
50636;BME280;36598;46.054;11.130;2022-11-15T07:11:06;99554.47;;;7.59;75.39
50636;BME280;36598;46.054;11.130;2022-11-15T07:13:33;99548.16;;;7.62;75.62
50636;BME280;36598;46.054;11.130;2022-11-15T07:16:01;99551.75;;;7.73;74.90
50636;BME280;36598;46.054;11.130;2022-11-15T07:18:27;99553.44;;;7.92;75.48
50636;BME280;36598;46.054;11.130;2022-11-15T07:20:52;99555.38;;;7.92;75.30
50636;BME280;36598;46.054;11.130;2022-11-15T07:23:18;99549.41;;;7.72;76.32
50636;BME280;36598;46.054;11.130;2022-11-15T07:25:43;99548.56;;;7.64;76.51
50636;BME280;36598;46.054;11.130;2022-11-15T07:28:08;99543.63;;;8.13;75.30
50636;BME280;36598;46.054;11.130;2022-11-15T07:30:33;99551.13;;;8.12;74.11
50636;BME280;36598;46.054;11.130;2022-11-15T07:32:59;99536.69;;;8.65;72.23
50636;BME280;36598;46.054;11.130;2022-11-15T07:35:25;99541.00;;;8.59;72.47
50636;BME280;36598;46.054;11.130;2022-11-15T07:37:54;99539.81;;;9.07;71.12
50636;BME280;36598;46.054;11.130;2022-11-15T07:40:20;99538.25;;;8.81;70.63
50636;BME280;36598;46.054;11.130;2022-11-15T07:42:45;99547.69;;;8.72;71.23
50636;BME280;36598;46.054;11.130;2022-11-15T07:45:21;99538.97;;;9.31;69.02
50636;BME280;36598;46.054;11.130;2022-11-15T07:47:48;99528.66;;;9.60;67.84
50636;BME280;36598;46.054;11.130;2022-11-15T07:50:13;99534.59;;;9.44;69.35
50636;BME280;36598;46.054;11.130;2022-11-15T07:52:38;99527.00;;;9.73;68.62
50636;BME280;36598;46.054;11.130;2022-11-15T07:55:04;99522.53;;;9.97;67.20
50636;BME280;36598;46.054;11.130;2022-11-15T07:57:29;99522.97;;;11.07;64.62
50636;BME280;36598;46.054;11.130;2022-11-15T07:59:55;99508.28;;;17.83;46.13
50636;BME280;36598;46.054;11.130;2022-11-15T08:02:20;99503.88;;;20.22;39.41
50636;BME280;36598;46.054;11.130;2022-11-15T08:04:45;99495.16;;;24.59;31.77
50636;BME280;36598;46.054;11.130;2022-11-15T08:07:11;99492.16;;;27.35;26.76
50636;BME280;36598;46.054;11.130;2022-11-15T08:09:36;99494.00;;;28.45;24.61
50636;BME280;36598;46.054;11.130;2022-11-15T08:12:01;99498.56;;;29.28;23.38
50636;BME280;36598;46.054;11.130;2022-11-15T08:14:26;99501.19;;;24.40;28.48
50636;BME280;36598;46.054;11.130;2022-11-15T08:16:51;99502.94;;;25.89;26.75
50636;BME280;36598;46.054;11.130;2022-11-15T08:19:17;99500.03;;;23.95;29.28
50636;BME280;36598;46.054;11.130;2022-11-15T08:21:42;99509.63;;;21.18;33.00
50636;BME280;36598;46.054;11.130;2022-11-15T08:24:09;99496.31;;;19.03;36.99
50636;BME280;36598;46.054;11.130;2022-11-15T08:26:34;99503.97;;;17.34;40.69
50636;BME280;36598;46.054;11.130;2022-11-15T08:29:00;99490.53;;;16.21;43.31
50636;BME280;36598;46.054;11.130;2022-11-15T08:31:25;99497.72;;;13.88;48.51
50636;BME280;36598;46.054;11.130;2022-11-15T08:33:50;99492.16;;;14.24;49.05
50636;BME280;36598;46.054;11.130;2022-11-15T08:36:16;99495.22;;;13.94;49.83
50636;BME280;36598;46.054;11.130;2022-11-15T08:38:42;99487.09;;;13.83;50.43
50636;BME280;36598;46.054;11.130;2022-11-15T08:41:09;99487.34;;;13.72;51.23
50636;BME280;36598;46.054;11.130;2022-11-15T08:43:36;99495.50;;;12.73;54.35
50636;BME280;36598;46.054;11.130;2022-11-15T08:46:01;99483.41;;;13.30;52.17
50636;BME280;36598;46.054;11.130;2022-11-15T08:48:26;99488.75;;;12.74;55.08
50636;BME280;36598;46.054;11.130;2022-11-15T08:50:55;99487.66;;;12.68;55.34
50636;BME280;36598;46.054;11.130;2022-11-15T08:53:20;99481.06;;;12.35;56.60
50636;BME280;36598;46.054;11.130;2022-11-15T08:55:46;99474.16;;;13.13;54.48
50636;BME280;36598;46.054;11.130;2022-11-15T08:58:11;99465.00;;;12.93;55.65
50636;BME280;36598;46.054;11.130;2022-11-15T09:00:36;99462.03;;;13.27;54.01
50636;BME280;36598;46.054;11.130;2022-11-15T09:03:05;99452.59;;;13.81;52.84
50636;BME280;36598;46.054;11.130;2022-11-15T09:05:30;99459.63;;;14.05;51.51
50636;BME280;36598;46.054;11.130;2022-11-15T09:07:56;99467.66;;;13.99;52.21
50636;BME280;36598;46.054;11.130;2022-11-15T09:10:21;99468.38;;;13.67;53.64
50636;BME280;36598;46.054;11.130;2022-11-15T09:12:47;99465.31;;;13.98;52.04
50636;BME280;36598;46.054;11.130;2022-11-15T09:15:15;99459.63;;;13.29;54.99
50636;BME280;36598;46.054;11.130;2022-11-15T09:17:41;99462.13;;;12.76;56.58
50636;BME280;36598;46.054;11.130;2022-11-15T09:20:07;99469.72;;;12.49;57.72
50636;BME280;36598;46.054;11.130;2022-11-15T09:22:32;99460.53;;;12.75;57.77
50636;BME280;36598;46.054;11.130;2022-11-15T09:24:58;99459.06;;;13.14;57.56
50636;BME280;36598;46.054;11.130;2022-11-15T09:27:27;99457.59;;;16.16;48.93
50636;BME280;36598;46.054;11.130;2022-11-15T09:29:52;99451.09;;;17.05;45.89
50636;BME280;36598;46.054;11.130;2022-11-15T09:32:17;99457.44;;;16.58;46.04
50636;BME280;36598;46.054;11.130;2022-11-15T09:34:42;99451.41;;;16.60;46.06
50636;BME280;36598;46.054;11.130;2022-11-15T09:37:08;99446.69;;;17.61;43.78
50636;BME280;36598;46.054;11.130;2022-11-15T09:39:33;99452.44;;;18.19;41.77
50636;BME280;36598;46.054;11.130;2022-11-15T09:44:28;99457.03;;;16.09;46.36
50636;BME280;36598;46.054;11.130;2022-11-15T09:49:22;99446.97;;;21.32;37.30
50636;BME280;36598;46.054;11.130;2022-11-15T09:51:49;99437.09;;;21.37;35.18
50636;BME280;36598;46.054;11.130;2022-11-15T09:56:46;99430.22;;;17.85;42.22
50636;BME280;36598;46.054;11.130;2022-11-15T10:01:49;99424.53;;;15.06;49.07
50636;BME280;36598;46.054;11.130;2022-11-15T10:04:19;99421.06;;;15.43;48.69
50636;BME280;36598;46.054;11.130;2022-11-15T10:06:54;99421.41;;;16.25;46.97
50636;BME280;36598;46.054;11.130;2022-11-15T10:09:27;99409.59;;;17.69;43.22
50636;BME280;36598;46.054;11.130;2022-11-15T10:11:54;99406.94;;;18.37;42.09
50636;BME280;36598;46.054;11.130;2022-11-15T10:14:20;99401.81;;;17.42;44.12
50636;BME280;36598;46.054;11.130;2022-11-15T10:24:15;99389.94;;;15.03;50.37
50636;BME280;36598;46.054;11.130;2022-11-15T10:26:47;99391.75;;;14.81;50.82
50636;BME280;36598;46.054;11.130;2022-11-15T10:29:17;99376.53;;;13.87;53.13
50636;BME280;36598;46.054;11.130;2022-11-15T10:31:42;99372.22;;;13.50;55.16
50636;BME280;36598;46.054;11.130;2022-11-15T10:34:15;99364.72;;;13.83;53.86
50636;BME280;36598;46.054;11.130;2022-11-15T10:36:56;99367.94;;;13.82;54.88
50636;BME280;36598;46.054;11.130;2022-11-15T10:39:22;99353.31;;;13.61;55.44
50636;BME280;36598;46.054;11.130;2022-11-15T10:41:48;99350.50;;;13.45;55.79
50636;BME280;36598;46.054;11.130;2022-11-15T10:49:20;99338.56;;;13.81;55.18
50636;BME280;36598;46.054;11.130;2022-11-15T10:52:00;99338.56;;;14.91;52.10
50636;BME280;36598;46.054;11.130;2022-11-15T10:57:16;99322.31;;;16.30;47.95
50636;BME280;36598;46.054;11.130;2022-11-15T10:59:46;99318.91;;;16.00;47.53
50636;BME280;36598;46.054;11.130;2022-11-15T11:04:50;99313.16;;;15.02;50.04
50636;BME280;36598;46.054;11.130;2022-11-15T11:07:31;99304.16;;;14.69;51.08
50636;BME280;36598;46.054;11.130;2022-11-15T11:09:58;99304.31;;;14.78;51.73
50636;BME280;36598;46.054;11.130;2022-11-15T11:12:27;99294.53;;;14.41;52.06
50636;BME280;36598;46.054;11.130;2022-11-15T11:14:53;99287.59;;;14.33;52.90
50636;BME280;36598;46.054;11.130;2022-11-15T11:22:22;99282.97;;;13.08;55.93
50636;BME280;36598;46.054;11.130;2022-11-15T11:24:58;99271.34;;;13.33;55.07
50636;BME280;36598;46.054;11.130;2022-11-15T11:37:40;99257.53;;;12.73;56.41
50636;BME280;36598;46.054;11.130;2022-11-15T11:42:52;99245.41;;;12.84;56.10
50636;BME280;36598;46.054;11.130;2022-11-15T11:50:36;99244.38;;;12.38;57.82
50636;BME280;36598;46.054;11.130;2022-11-15T11:53:09;99236.19;;;12.50;58.13
50636;BME280;36598;46.054;11.130;2022-11-15T12:00:35;99240.94;;;12.30;57.87
50636;BME280;36598;46.054;11.130;2022-11-15T12:03:15;99229.31;;;12.15;58.92
50636;BME280;36598;46.054;11.130;2022-11-15T12:05:50;99229.06;;;12.30;58.62
50636;BME280;36598;46.054;11.130;2022-11-15T12:13:30;99216.31;;;11.89;59.73
50636;BME280;36598;46.054;11.130;2022-11-15T12:16:16;99213.28;;;12.03;59.31
50636;BME280;36598;46.054;11.130;2022-11-15T12:18:49;99214.94;;;12.20;59.76
50636;BME280;36598;46.054;11.130;2022-11-15T12:21:18;99206.88;;;12.30;59.43
50636;BME280;36598;46.054;11.130;2022-11-15T12:23:52;99204.50;;;12.28;59.83
50636;BME280;36598;46.054;11.130;2022-11-15T12:26:24;99195.91;;;12.22;59.30
50636;BME280;36598;46.054;11.130;2022-11-15T12:28:55;99193.09;;;11.79;59.62
50636;BME280;36598;46.054;11.130;2022-11-15T12:31:24;99199.84;;;12.01;59.18
50636;BME280;36598;46.054;11.130;2022-11-15T12:33:55;99193.13;;;12.22;58.90
50636;BME280;36598;46.054;11.130;2022-11-15T12:41:20;99188.31;;;12.03;60.26
50636;BME280;36598;46.054;11.130;2022-11-15T12:43:46;99185.72;;;12.16;59.44
50636;BME280;36598;46.054;11.130;2022-11-15T12:46:22;99182.19;;;12.35;59.20
50636;BME280;36598;46.054;11.130;2022-11-15T12:48:53;99171.13;;;12.12;59.70
50636;BME280;36598;46.054;11.130;2022-11-15T12:51:20;99171.50;;;12.14;59.58
50636;BME280;36598;46.054;11.130;2022-11-15T12:53:45;99163.41;;;12.43;60.04
50636;BME280;36598;46.054;11.130;2022-11-15T12:58:46;99155.56;;;12.38;60.79
50636;BME280;36598;46.054;11.130;2022-11-15T13:20:30;99134.94;;;12.19;59.90
50636;BME280;36598;46.054;11.130;2022-11-15T13:22:38;99136.66;;;12.13;59.41
50636;BME280;36598;46.054;11.130;2022-11-15T13:25:18;99123.97;;;12.12;59.26
50636;BME280;36598;46.054;11.130;2022-11-15T13:27:45;99120.66;;;11.77;61.03
50636;BME280;36598;46.054;11.130;2022-11-15T13:30:25;99117.66;;;11.91;61.04
50636;BME280;36598;46.054;11.130;2022-11-15T13:32:50;99123.63;;;12.30;60.67
50636;BME280;36598;46.054;11.130;2022-11-15T13:35:26;99114.34;;;11.76;61.25
50636;BME280;36598;46.054;11.130;2022-11-15T13:37:53;99105.56;;;12.01;60.32
50636;BME280;36598;46.054;11.130;2022-11-15T13:42:43;99101.31;;;12.17;61.43
50636;BME280;36598;46.054;11.130;2022-11-15T13:45:11;99108.56;;;11.91;62.21
50636;BME280;36598;46.054;11.130;2022-11-15T13:47:37;99103.09;;;11.87;61.31
50636;BME280;36598;46.054;11.130;2022-11-15T13:50:03;99103.25;;;11.76;61.01
50636;BME280;36598;46.054;11.130;2022-11-15T13:52:31;99095.22;;;11.62;60.67
50636;BME280;36598;46.054;11.130;2022-11-15T13:55:12;99100.31;;;11.44;61.95
50636;BME280;36598;46.054;11.130;2022-11-15T13:57:54;99095.22;;;11.62;62.40
50636;BME280;36598;46.054;11.130;2022-11-15T14:05:42;99094.66;;;11.27;63.36
50636;BME280;36598;46.054;11.130;2022-11-15T14:10:45;99086.13;;;11.38;64.32
50636;BME280;36598;46.054;11.130;2022-11-15T14:13:25;99089.44;;;11.29;65.40
50636;BME280;36598;46.054;11.130;2022-11-15T14:15:51;99078.38;;;11.53;64.48
50636;BME280;36598;46.054;11.130;2022-11-15T14:21:06;99069.50;;;11.62;63.67
50636;BME280;36598;46.054;11.130;2022-11-15T14:23:32;99068.34;;;11.39;64.21
50636;BME280;36598;46.054;11.130;2022-11-15T14:25:58;99071.16;;;11.12;64.78
50636;BME280;36598;46.054;11.130;2022-11-15T14:30:49;99059.31;;;11.12;65.19
50636;BME280;36598;46.054;11.130;2022-11-15T14:35:44;99053.88;;;11.04;65.79
50636;BME280;36598;46.054;11.130;2022-11-15T14:38:10;99048.81;;;10.99;65.75
50636;BME280;36598;46.054;11.130;2022-11-15T14:40:35;99045.03;;;11.13;65.24
50636;BME280;36598;46.054;11.130;2022-11-15T14:43:00;99045.84;;;11.14;66.94
50636;BME280;36598;46.054;11.130;2022-11-15T14:45:26;99039.56;;;11.10;66.81
50636;BME280;36598;46.054;11.130;2022-11-15T14:47:52;99034.09;;;11.06;66.27
50636;BME280;36598;46.054;11.130;2022-11-15T14:50:19;99037.47;;;10.94;66.39
50636;BME280;36598;46.054;11.130;2022-11-15T14:52:44;99038.19;;;10.98;67.21
50636;BME280;36598;46.054;11.130;2022-11-15T14:55:17;99039.84;;;10.92;67.92
50636;BME280;36598;46.054;11.130;2022-11-15T14:57:44;99043.44;;;10.92;67.59
50636;BME280;36598;46.054;11.130;2022-11-15T15:00:10;99032.66;;;10.98;67.59
50636;BME280;36598;46.054;11.130;2022-11-15T15:02:36;99027.66;;;10.89;68.30
50636;BME280;36598;46.054;11.130;2022-11-15T15:05:07;99024.84;;;10.66;69.26
50636;BME280;36598;46.054;11.130;2022-11-15T15:07:37;99023.09;;;10.52;70.31
50636;BME280;36598;46.054;11.130;2022-11-15T15:10:03;99018.03;;;10.47;70.76
50636;BME280;36598;46.054;11.130;2022-11-15T15:12:28;99011.53;;;10.34;70.93
50636;BME280;36598;46.054;11.130;2022-11-15T15:14:55;99016.97;;;10.41;70.84
50636;BME280;36598;46.054;11.130;2022-11-15T15:17:20;99015.38;;;10.40;70.80
50636;BME280;36598;46.054;11.130;2022-11-15T15:19:45;99011.44;;;10.41;71.33